sensor_id;sensor_type;location;lat;lon;timestamp;temperature;humidity
14798;DHT22;7490;63.708;20.368;2022-08-19T00:00:16;18.80;90.20
14798;DHT22;7490;63.708;20.368;2022-08-19T00:02:42;18.70;90.20
14798;DHT22;7490;63.708;20.368;2022-08-19T00:05:09;18.70;90.20
14798;DHT22;7490;63.708;20.368;2022-08-19T00:07:36;18.70;90.20
14798;DHT22;7490;63.708;20.368;2022-08-19T00:10:04;18.70;90.30
14798;DHT22;7490;63.708;20.368;2022-08-19T00:12:30;18.70;90.20
14798;DHT22;7490;63.708;20.368;2022-08-19T00:14:56;18.70;90.30
14798;DHT22;7490;63.708;20.368;2022-08-19T00:17:22;18.70;90.30
14798;DHT22;7490;63.708;20.368;2022-08-19T00:19:47;18.70;90.30
14798;DHT22;7490;63.708;20.368;2022-08-19T00:22:13;18.70;90.40
14798;DHT22;7490;63.708;20.368;2022-08-19T00:24:39;18.60;90.50
14798;DHT22;7490;63.708;20.368;2022-08-19T00:27:06;18.60;90.50
14798;DHT22;7490;63.708;20.368;2022-08-19T00:29:32;18.60;90.50
14798;DHT22;7490;63.708;20.368;2022-08-19T00:31:58;18.60;90.60
14798;DHT22;7490;63.708;20.368;2022-08-19T00:34:25;18.60;90.60
14798;DHT22;7490;63.708;20.368;2022-08-19T00:36:53;18.60;90.70
14798;DHT22;7490;63.708;20.368;2022-08-19T00:39:19;18.60;90.70
14798;DHT22;7490;63.708;20.368;2022-08-19T00:41:47;18.50;90.80
14798;DHT22;7490;63.708;20.368;2022-08-19T00:44:26;18.50;90.80
14798;DHT22;7490;63.708;20.368;2022-08-19T00:46:54;18.50;90.90
14798;DHT22;7490;63.708;20.368;2022-08-19T00:51:53;18.50;91.00
14798;DHT22;7490;63.708;20.368;2022-08-19T00:54:20;18.50;91.00
14798;DHT22;7490;63.708;20.368;2022-08-19T00:56:47;18.60;91.10
14798;DHT22;7490;63.708;20.368;2022-08-19T00:59:15;18.60;91.20
14798;DHT22;7490;63.708;20.368;2022-08-19T01:01:43;18.50;91.30
14798;DHT22;7490;63.708;20.368;2022-08-19T01:04:09;18.50;91.40
14798;DHT22;7490;63.708;20.368;2022-08-19T01:06:39;18.50;91.60
14798;DHT22;7490;63.708;20.368;2022-08-19T01:09:07;18.40;91.70
14798;DHT22;7490;63.708;20.368;2022-08-19T01:11:36;18.40;91.90
14798;DHT22;7490;63.708;20.368;2022-08-19T01:14:03;18.40;92.10
14798;DHT22;7490;63.708;20.368;2022-08-19T01:16:32;18.40;92.10
14798;DHT22;7490;63.708;20.368;2022-08-19T01:18:59;18.40;92.20
14798;DHT22;7490;63.708;20.368;2022-08-19T01:21:44;18.40;92.30
14798;DHT22;7490;63.708;20.368;2022-08-19T01:24:12;18.40;92.50
14798;DHT22;7490;63.708;20.368;2022-08-19T01:26:40;18.40;92.40
14798;DHT22;7490;63.708;20.368;2022-08-19T01:29:07;18.40;92.50
14798;DHT22;7490;63.708;20.368;2022-08-19T01:31:33;18.40;92.60
14798;DHT22;7490;63.708;20.368;2022-08-19T01:34:01;18.40;92.80
14798;DHT22;7490;63.708;20.368;2022-08-19T01:38:55;18.40;93.00
14798;DHT22;7490;63.708;20.368;2022-08-19T01:41:21;18.50;93.10
14798;DHT22;7490;63.708;20.368;2022-08-19T01:43:49;18.60;93.10
14798;DHT22;7490;63.708;20.368;2022-08-19T01:46:16;18.60;93.10
14798;DHT22;7490;63.708;20.368;2022-08-19T01:48:42;18.70;93.10
14798;DHT22;7490;63.708;20.368;2022-08-19T01:51:09;18.70;93.10
14798;DHT22;7490;63.708;20.368;2022-08-19T01:53:35;18.70;93.10
14798;DHT22;7490;63.708;20.368;2022-08-19T01:56:02;18.80;93.10
14798;DHT22;7490;63.708;20.368;2022-08-19T01:58:32;18.80;93.10
14798;DHT22;7490;63.708;20.368;2022-08-19T02:01:01;18.90;93.10
14798;DHT22;7490;63.708;20.368;2022-08-19T02:03:27;18.90;93.10
14798;DHT22;7490;63.708;20.368;2022-08-19T02:06:03;18.90;93.50
14798;DHT22;7490;63.708;20.368;2022-08-19T02:08:33;18.90;93.20
14798;DHT22;7490;63.708;20.368;2022-08-19T02:11:00;18.90;93.00
14798;DHT22;7490;63.708;20.368;2022-08-19T02:13:27;18.90;93.00
14798;DHT22;7490;63.708;20.368;2022-08-19T02:15:53;18.90;93.20
14798;DHT22;7490;63.708;20.368;2022-08-19T02:18:19;18.80;93.20
14798;DHT22;7490;63.708;20.368;2022-08-19T02:20:44;18.70;93.30
14798;DHT22;7490;63.708;20.368;2022-08-19T02:23:13;18.70;93.50
14798;DHT22;7490;63.708;20.368;2022-08-19T02:25:40;18.70;93.60
14798;DHT22;7490;63.708;20.368;2022-08-19T02:28:05;18.60;93.60
14798;DHT22;7490;63.708;20.368;2022-08-19T02:30:31;18.60;93.70
14798;DHT22;7490;63.708;20.368;2022-08-19T02:32:57;18.60;94.00
14798;DHT22;7490;63.708;20.368;2022-08-19T02:35:23;18.60;94.10
14798;DHT22;7490;63.708;20.368;2022-08-19T02:37:49;18.50;94.10
14798;DHT22;7490;63.708;20.368;2022-08-19T02:40:33;18.50;94.20
14798;DHT22;7490;63.708;20.368;2022-08-19T02:43:00;18.50;94.30
14798;DHT22;7490;63.708;20.368;2022-08-19T02:45:26;18.50;94.50
14798;DHT22;7490;63.708;20.368;2022-08-19T02:47:52;18.50;94.70
14798;DHT22;7490;63.708;20.368;2022-08-19T02:50:18;18.50;94.40
14798;DHT22;7490;63.708;20.368;2022-08-19T02:52:44;18.50;94.50
14798;DHT22;7490;63.708;20.368;2022-08-19T02:55:11;18.60;94.60
14798;DHT22;7490;63.708;20.368;2022-08-19T02:57:36;18.60;94.70
14798;DHT22;7490;63.708;20.368;2022-08-19T03:00:05;18.60;94.70
14798;DHT22;7490;63.708;20.368;2022-08-19T03:02:31;18.60;94.80
14798;DHT22;7490;63.708;20.368;2022-08-19T03:04:57;18.60;94.90
14798;DHT22;7490;63.708;20.368;2022-08-19T03:07:23;18.60;94.90
14798;DHT22;7490;63.708;20.368;2022-08-19T03:09:48;18.70;94.90
14798;DHT22;7490;63.708;20.368;2022-08-19T03:12:14;18.70;94.90
14798;DHT22;7490;63.708;20.368;2022-08-19T03:14:40;18.70;94.90
14798;DHT22;7490;63.708;20.368;2022-08-19T03:17:06;18.70;94.90
14798;DHT22;7490;63.708;20.368;2022-08-19T03:19:32;18.70;95.00
14798;DHT22;7490;63.708;20.368;2022-08-19T03:21:58;18.70;95.10
14798;DHT22;7490;63.708;20.368;2022-08-19T03:24:24;18.70;95.10
14798;DHT22;7490;63.708;20.368;2022-08-19T03:26:52;18.70;95.20
14798;DHT22;7490;63.708;20.368;2022-08-19T03:29:23;18.70;95.20
14798;DHT22;7490;63.708;20.368;2022-08-19T03:31:49;18.80;95.10
14798;DHT22;7490;63.708;20.368;2022-08-19T03:34:28;18.80;95.20
14798;DHT22;7490;63.708;20.368;2022-08-19T03:36:56;18.70;95.30
14798;DHT22;7490;63.708;20.368;2022-08-19T03:39:23;18.70;95.20
14798;DHT22;7490;63.708;20.368;2022-08-19T03:41:51;18.60;95.30
14798;DHT22;7490;63.708;20.368;2022-08-19T03:44:20;18.60;95.50
14798;DHT22;7490;63.708;20.368;2022-08-19T03:46:52;18.60;95.70
14798;DHT22;7490;63.708;20.368;2022-08-19T03:49:20;18.60;95.80
14798;DHT22;7490;63.708;20.368;2022-08-19T03:51:48;18.50;95.80
14798;DHT22;7490;63.708;20.368;2022-08-19T03:54:17;18.50;95.90
14798;DHT22;7490;63.708;20.368;2022-08-19T03:56:44;18.40;95.90
14798;DHT22;7490;63.708;20.368;2022-08-19T03:59:13;18.40;96.10
14798;DHT22;7490;63.708;20.368;2022-08-19T04:01:40;18.40;96.30
14798;DHT22;7490;63.708;20.368;2022-08-19T04:04:06;18.40;96.40
14798;DHT22;7490;63.708;20.368;2022-08-19T04:06:33;18.40;96.50
14798;DHT22;7490;63.708;20.368;2022-08-19T04:09:01;18.40;96.50
14798;DHT22;7490;63.708;20.368;2022-08-19T04:11:35;18.50;96.50
14798;DHT22;7490;63.708;20.368;2022-08-19T04:14:01;18.50;96.50
14798;DHT22;7490;63.708;20.368;2022-08-19T04:16:28;18.60;96.50
14798;DHT22;7490;63.708;20.368;2022-08-19T04:18:55;18.60;96.50
14798;DHT22;7490;63.708;20.368;2022-08-19T04:21:24;18.60;96.60
14798;DHT22;7490;63.708;20.368;2022-08-19T04:23:51;18.70;96.60
14798;DHT22;7490;63.708;20.368;2022-08-19T04:26:21;18.70;96.40
14798;DHT22;7490;63.708;20.368;2022-08-19T04:28:47;18.80;96.40
14798;DHT22;7490;63.708;20.368;2022-08-19T04:31:19;18.80;96.50
14798;DHT22;7490;63.708;20.368;2022-08-19T04:33:45;18.90;96.60
14798;DHT22;7490;63.708;20.368;2022-08-19T04:36:19;18.90;96.60
14798;DHT22;7490;63.708;20.368;2022-08-19T04:38:47;18.90;96.60
14798;DHT22;7490;63.708;20.368;2022-08-19T04:41:13;19.00;96.50
14798;DHT22;7490;63.708;20.368;2022-08-19T04:43:57;19.00;96.70
14798;DHT22;7490;63.708;20.368;2022-08-19T04:46:23;19.00;96.70
14798;DHT22;7490;63.708;20.368;2022-08-19T04:48:48;19.00;96.80
14798;DHT22;7490;63.708;20.368;2022-08-19T04:51:14;19.10;96.90
14798;DHT22;7490;63.708;20.368;2022-08-19T04:53:41;19.10;96.80
14798;DHT22;7490;63.708;20.368;2022-08-19T04:56:10;19.10;96.80
14798;DHT22;7490;63.708;20.368;2022-08-19T04:58:37;19.20;96.80
14798;DHT22;7490;63.708;20.368;2022-08-19T05:01:03;19.20;96.80
14798;DHT22;7490;63.708;20.368;2022-08-19T05:03:30;19.30;96.90
14798;DHT22;7490;63.708;20.368;2022-08-19T05:06:03;19.40;97.00
14798;DHT22;7490;63.708;20.368;2022-08-19T05:08:29;19.40;97.00
14798;DHT22;7490;63.708;20.368;2022-08-19T05:10:55;19.50;97.10
14798;DHT22;7490;63.708;20.368;2022-08-19T05:13:23;19.60;97.00
14798;DHT22;7490;63.708;20.368;2022-08-19T05:15:56;19.70;97.10
14798;DHT22;7490;63.708;20.368;2022-08-19T05:18:22;19.80;97.00
14798;DHT22;7490;63.708;20.368;2022-08-19T05:21:12;19.90;96.70
14798;DHT22;7490;63.708;20.368;2022-08-19T05:23:57;19.90;96.40
14798;DHT22;7490;63.708;20.368;2022-08-19T05:26:24;19.90;96.40
14798;DHT22;7490;63.708;20.368;2022-08-19T05:28:52;20.00;96.40
14798;DHT22;7490;63.708;20.368;2022-08-19T05:31:18;20.00;96.40
14798;DHT22;7490;63.708;20.368;2022-08-19T05:33:43;20.00;96.30
14798;DHT22;7490;63.708;20.368;2022-08-19T05:36:09;20.10;96.30
14798;DHT22;7490;63.708;20.368;2022-08-19T05:38:35;20.10;96.40
14798;DHT22;7490;63.708;20.368;2022-08-19T05:41:09;20.20;96.60
14798;DHT22;7490;63.708;20.368;2022-08-19T05:43:35;20.40;96.80
14798;DHT22;7490;63.708;20.368;2022-08-19T05:46:03;20.60;96.50
14798;DHT22;7490;63.708;20.368;2022-08-19T05:48:34;20.80;96.10
14798;DHT22;7490;63.708;20.368;2022-08-19T05:51:05;20.90;95.70
14798;DHT22;7490;63.708;20.368;2022-08-19T05:53:32;21.10;95.50
14798;DHT22;7490;63.708;20.368;2022-08-19T05:56:07;21.30;95.30
14798;DHT22;7490;63.708;20.368;2022-08-19T05:58:35;21.50;94.70
14798;DHT22;7490;63.708;20.368;2022-08-19T06:01:03;21.50;94.50
14798;DHT22;7490;63.708;20.368;2022-08-19T06:03:32;21.60;94.40
14798;DHT22;7490;63.708;20.368;2022-08-19T06:05:59;21.80;94.40
14798;DHT22;7490;63.708;20.368;2022-08-19T06:08:26;22.20;94.00
14798;DHT22;7490;63.708;20.368;2022-08-19T06:10:52;22.50;93.50
14798;DHT22;7490;63.708;20.368;2022-08-19T06:13:18;22.80;92.80
14798;DHT22;7490;63.708;20.368;2022-08-19T06:15:45;23.00;92.40
14798;DHT22;7490;63.708;20.368;2022-08-19T06:18:13;23.10;91.70
14798;DHT22;7490;63.708;20.368;2022-08-19T06:20:39;23.30;91.10
14798;DHT22;7490;63.708;20.368;2022-08-19T06:23:05;23.30;90.70
14798;DHT22;7490;63.708;20.368;2022-08-19T06:25:31;23.30;90.70
14798;DHT22;7490;63.708;20.368;2022-08-19T06:27:56;23.40;90.40
14798;DHT22;7490;63.708;20.368;2022-08-19T06:30:22;23.50;90.10
14798;DHT22;7490;63.708;20.368;2022-08-19T06:32:48;23.50;89.60
14798;DHT22;7490;63.708;20.368;2022-08-19T06:35:13;23.40;89.00
14798;DHT22;7490;63.708;20.368;2022-08-19T06:37:40;23.40;89.40
14798;DHT22;7490;63.708;20.368;2022-08-19T06:40:07;23.40;89.30
14798;DHT22;7490;63.708;20.368;2022-08-19T06:42:34;23.40;89.60
14798;DHT22;7490;63.708;20.368;2022-08-19T06:45:00;23.40;88.90
14798;DHT22;7490;63.708;20.368;2022-08-19T06:47:28;23.40;88.40
14798;DHT22;7490;63.708;20.368;2022-08-19T06:49:56;23.40;88.70
14798;DHT22;7490;63.708;20.368;2022-08-19T06:52:25;23.50;88.30
14798;DHT22;7490;63.708;20.368;2022-08-19T06:54:51;23.40;88.70
14798;DHT22;7490;63.708;20.368;2022-08-19T06:57:16;23.50;89.20
14798;DHT22;7490;63.708;20.368;2022-08-19T06:59:42;23.70;88.60
14798;DHT22;7490;63.708;20.368;2022-08-19T07:02:08;23.80;87.80
14798;DHT22;7490;63.708;20.368;2022-08-19T07:04:35;23.80;87.40
14798;DHT22;7490;63.708;20.368;2022-08-19T07:07:07;23.70;87.50
14798;DHT22;7490;63.708;20.368;2022-08-19T07:09:35;23.70;87.80
14798;DHT22;7490;63.708;20.368;2022-08-19T07:12:04;23.70;88.50
14798;DHT22;7490;63.708;20.368;2022-08-19T07:14:32;24.00;88.60
14798;DHT22;7490;63.708;20.368;2022-08-19T07:16:58;24.50;87.90
14798;DHT22;7490;63.708;20.368;2022-08-19T07:19:25;25.00;86.70
14798;DHT22;7490;63.708;20.368;2022-08-19T07:21:54;25.30;84.70
14798;DHT22;7490;63.708;20.368;2022-08-19T07:24:22;25.50;83.40
14798;DHT22;7490;63.708;20.368;2022-08-19T07:26:53;25.50;81.80
14798;DHT22;7490;63.708;20.368;2022-08-19T07:29:21;25.50;81.30
14798;DHT22;7490;63.708;20.368;2022-08-19T07:31:49;25.50;81.30
14798;DHT22;7490;63.708;20.368;2022-08-19T07:34:15;25.50;81.20
14798;DHT22;7490;63.708;20.368;2022-08-19T07:36:42;25.50;80.60
14798;DHT22;7490;63.708;20.368;2022-08-19T07:39:16;25.50;80.10
14798;DHT22;7490;63.708;20.368;2022-08-19T07:41:42;25.40;79.70
14798;DHT22;7490;63.708;20.368;2022-08-19T07:44:09;25.30;79.90
14798;DHT22;7490;63.708;20.368;2022-08-19T07:46:37;25.20;79.90
14798;DHT22;7490;63.708;20.368;2022-08-19T07:49:05;25.10;80.00
14798;DHT22;7490;63.708;20.368;2022-08-19T07:51:31;24.80;80.20
14798;DHT22;7490;63.708;20.368;2022-08-19T07:53:57;24.50;80.50
14798;DHT22;7490;63.708;20.368;2022-08-19T07:56:23;24.00;80.80
14798;DHT22;7490;63.708;20.368;2022-08-19T07:58:50;23.70;81.90
14798;DHT22;7490;63.708;20.368;2022-08-19T08:01:21;23.40;82.90
14798;DHT22;7490;63.708;20.368;2022-08-19T08:03:47;23.10;83.30
14798;DHT22;7490;63.708;20.368;2022-08-19T08:06:32;22.90;83.90
14798;DHT22;7490;63.708;20.368;2022-08-19T08:09:20;22.70;84.10
14798;DHT22;7490;63.708;20.368;2022-08-19T08:11:57;22.50;84.80
14798;DHT22;7490;63.708;20.368;2022-08-19T08:14:29;22.30;85.50
14798;DHT22;7490;63.708;20.368;2022-08-19T08:16:56;22.30;86.60
14798;DHT22;7490;63.708;20.368;2022-08-19T08:19:23;22.40;86.90
14798;DHT22;7490;63.708;20.368;2022-08-19T08:21:50;22.60;86.90
14798;DHT22;7490;63.708;20.368;2022-08-19T08:24:16;22.70;86.30
14798;DHT22;7490;63.708;20.368;2022-08-19T08:26:43;22.70;86.30
14798;DHT22;7490;63.708;20.368;2022-08-19T08:29:10;22.80;86.70
14798;DHT22;7490;63.708;20.368;2022-08-19T08:31:40;23.10;87.30
14798;DHT22;7490;63.708;20.368;2022-08-19T08:34:06;23.50;86.40
14798;DHT22;7490;63.708;20.368;2022-08-19T08:36:32;23.70;85.10
14798;DHT22;7490;63.708;20.368;2022-08-19T08:38:59;23.90;84.90
14798;DHT22;7490;63.708;20.368;2022-08-19T08:41:37;24.10;84.40
14798;DHT22;7490;63.708;20.368;2022-08-19T08:44:06;24.10;83.70
14798;DHT22;7490;63.708;20.368;2022-08-19T08:46:44;24.20;83.70
14798;DHT22;7490;63.708;20.368;2022-08-19T08:51:42;24.40;82.80
14798;DHT22;7490;63.708;20.368;2022-08-19T08:54:12;24.50;82.50
14798;DHT22;7490;63.708;20.368;2022-08-19T08:56:39;24.60;82.20
14798;DHT22;7490;63.708;20.368;2022-08-19T08:59:16;24.90;81.90
14798;DHT22;7490;63.708;20.368;2022-08-19T09:01:44;25.30;81.30
14798;DHT22;7490;63.708;20.368;2022-08-19T09:04:12;26.00;80.70
14798;DHT22;7490;63.708;20.368;2022-08-19T09:07:06;27.00;79.20
14798;DHT22;7490;63.708;20.368;2022-08-19T09:09:40;28.10;75.00
14798;DHT22;7490;63.708;20.368;2022-08-19T09:15:00;29.60;69.10
14798;DHT22;7490;63.708;20.368;2022-08-19T09:17:29;29.80;67.30
14798;DHT22;7490;63.708;20.368;2022-08-19T09:20:03;29.70;66.50
14798;DHT22;7490;63.708;20.368;2022-08-19T09:22:31;29.30;66.40
14798;DHT22;7490;63.708;20.368;2022-08-19T09:24:57;29.00;66.90
14798;DHT22;7490;63.708;20.368;2022-08-19T09:27:24;28.90;67.20
14798;DHT22;7490;63.708;20.368;2022-08-19T09:29:51;28.90;66.90
14798;DHT22;7490;63.708;20.368;2022-08-19T09:32:20;28.90;66.80
14798;DHT22;7490;63.708;20.368;2022-08-19T09:34:45;29.00;65.90
14798;DHT22;7490;63.708;20.368;2022-08-19T09:37:11;29.00;65.40
14798;DHT22;7490;63.708;20.368;2022-08-19T09:39:38;29.10;65.50
14798;DHT22;7490;63.708;20.368;2022-08-19T09:42:04;29.50;64.70
14798;DHT22;7490;63.708;20.368;2022-08-19T09:44:30;30.10;63.30
14798;DHT22;7490;63.708;20.368;2022-08-19T09:46:56;30.80;61.60
14798;DHT22;7490;63.708;20.368;2022-08-19T09:49:22;31.00;59.80
14798;DHT22;7490;63.708;20.368;2022-08-19T09:51:52;31.20;59.60
14798;DHT22;7490;63.708;20.368;2022-08-19T09:54:19;31.70;58.70
14798;DHT22;7490;63.708;20.368;2022-08-19T09:56:45;32.10;57.90
14798;DHT22;7490;63.708;20.368;2022-08-19T09:59:11;32.40;56.50
14798;DHT22;7490;63.708;20.368;2022-08-19T10:01:38;32.50;56.00
14798;DHT22;7490;63.708;20.368;2022-08-19T10:04:04;32.70;55.20
14798;DHT22;7490;63.708;20.368;2022-08-19T10:06:34;32.70;54.30
14798;DHT22;7490;63.708;20.368;2022-08-19T10:09:01;32.50;54.20
14798;DHT22;7490;63.708;20.368;2022-08-19T10:11:29;32.30;54.30
14798;DHT22;7490;63.708;20.368;2022-08-19T10:13:55;32.10;54.80
14798;DHT22;7490;63.708;20.368;2022-08-19T10:16:23;32.30;54.80
14798;DHT22;7490;63.708;20.368;2022-08-19T10:18:51;32.50;54.40
14798;DHT22;7490;63.708;20.368;2022-08-19T10:21:26;32.80;54.10
14798;DHT22;7490;63.708;20.368;2022-08-19T10:23:54;33.20;53.30
14798;DHT22;7490;63.708;20.368;2022-08-19T10:26:26;33.50;52.70
14798;DHT22;7490;63.708;20.368;2022-08-19T10:28:52;33.60;52.30
14798;DHT22;7490;63.708;20.368;2022-08-19T10:31:22;33.50;52.10
14798;DHT22;7490;63.708;20.368;2022-08-19T10:33:50;33.10;52.00
14798;DHT22;7490;63.708;20.368;2022-08-19T10:36:20;32.80;52.70
14798;DHT22;7490;63.708;20.368;2022-08-19T10:38:49;32.50;52.70
14798;DHT22;7490;63.708;20.368;2022-08-19T10:41:21;31.90;53.20
14798;DHT22;7490;63.708;20.368;2022-08-19T10:43:51;31.00;54.50
14798;DHT22;7490;63.708;20.368;2022-08-19T10:46:18;30.20;55.80
14798;DHT22;7490;63.708;20.368;2022-08-19T10:48:45;29.50;57.00
14798;DHT22;7490;63.708;20.368;2022-08-19T10:51:11;28.90;58.30
14798;DHT22;7490;63.708;20.368;2022-08-19T10:53:57;28.30;59.20
14798;DHT22;7490;63.708;20.368;2022-08-19T10:56:23;27.70;60.50
14798;DHT22;7490;63.708;20.368;2022-08-19T10:59:07;27.40;62.00
14798;DHT22;7490;63.708;20.368;2022-08-19T11:01:34;27.30;62.20
14798;DHT22;7490;63.708;20.368;2022-08-19T11:04:02;27.00;62.70
14798;DHT22;7490;63.708;20.368;2022-08-19T11:06:28;26.70;63.30
14798;DHT22;7490;63.708;20.368;2022-08-19T11:08:54;26.30;64.00
14798;DHT22;7490;63.708;20.368;2022-08-19T11:11:21;26.10;65.00
14798;DHT22;7490;63.708;20.368;2022-08-19T11:13:47;25.90;65.90
14798;DHT22;7490;63.708;20.368;2022-08-19T11:16:16;25.90;66.40
14798;DHT22;7490;63.708;20.368;2022-08-19T11:18:45;25.80;66.80
14798;DHT22;7490;63.708;20.368;2022-08-19T11:21:15;25.90;67.50
14798;DHT22;7490;63.708;20.368;2022-08-19T11:23:46;26.00;67.40
14798;DHT22;7490;63.708;20.368;2022-08-19T11:26:13;25.90;67.10
14798;DHT22;7490;63.708;20.368;2022-08-19T11:28:39;25.70;67.50
14798;DHT22;7490;63.708;20.368;2022-08-19T11:31:13;25.60;68.60
14798;DHT22;7490;63.708;20.368;2022-08-19T11:33:40;25.50;69.70
14798;DHT22;7490;63.708;20.368;2022-08-19T11:36:06;25.50;69.70
14798;DHT22;7490;63.708;20.368;2022-08-19T11:38:33;25.40;70.70
14798;DHT22;7490;63.708;20.368;2022-08-19T11:41:02;25.20;70.00
14798;DHT22;7490;63.708;20.368;2022-08-19T11:43:28;25.10;70.50
14798;DHT22;7490;63.708;20.368;2022-08-19T11:45:54;24.90;71.50
14798;DHT22;7490;63.708;20.368;2022-08-19T11:48:21;24.80;71.90
14798;DHT22;7490;63.708;20.368;2022-08-19T11:50:48;24.70;72.20
14798;DHT22;7490;63.708;20.368;2022-08-19T11:53:14;24.70;72.80
14798;DHT22;7490;63.708;20.368;2022-08-19T11:55:39;24.50;73.10
14798;DHT22;7490;63.708;20.368;2022-08-19T11:58:05;24.30;73.90
14798;DHT22;7490;63.708;20.368;2022-08-19T12:00:33;24.20;74.80
14798;DHT22;7490;63.708;20.368;2022-08-19T12:03:01;24.10;75.20
14798;DHT22;7490;63.708;20.368;2022-08-19T12:05:26;24.00;75.80
14798;DHT22;7490;63.708;20.368;2022-08-19T12:07:52;23.90;76.70
14798;DHT22;7490;63.708;20.368;2022-08-19T12:10:20;24.00;77.20
14798;DHT22;7490;63.708;20.368;2022-08-19T12:12:46;24.10;77.00
14798;DHT22;7490;63.708;20.368;2022-08-19T12:15:13;24.20;77.00
14798;DHT22;7490;63.708;20.368;2022-08-19T12:17:40;24.30;77.50
14798;DHT22;7490;63.708;20.368;2022-08-19T12:20:08;24.30;77.40
14798;DHT22;7490;63.708;20.368;2022-08-19T12:22:35;24.30;77.60
14798;DHT22;7490;63.708;20.368;2022-08-19T12:25:00;24.30;77.90
14798;DHT22;7490;63.708;20.368;2022-08-19T12:27:26;24.30;78.40
14798;DHT22;7490;63.708;20.368;2022-08-19T12:29:52;24.40;78.60
14798;DHT22;7490;63.708;20.368;2022-08-19T12:32:17;24.50;78.50
14798;DHT22;7490;63.708;20.368;2022-08-19T12:34:43;24.50;78.40
14798;DHT22;7490;63.708;20.368;2022-08-19T12:37:09;24.60;78.20
14798;DHT22;7490;63.708;20.368;2022-08-19T12:39:39;24.70;78.20
14798;DHT22;7490;63.708;20.368;2022-08-19T12:42:05;24.70;78.10
14798;DHT22;7490;63.708;20.368;2022-08-19T12:44:31;24.70;78.30
14798;DHT22;7490;63.708;20.368;2022-08-19T12:46:58;24.60;78.40
14798;DHT22;7490;63.708;20.368;2022-08-19T12:49:24;24.50;78.70
14798;DHT22;7490;63.708;20.368;2022-08-19T12:51:50;24.50;79.20
14798;DHT22;7490;63.708;20.368;2022-08-19T12:54:17;24.50;79.60
14798;DHT22;7490;63.708;20.368;2022-08-19T12:56:43;24.40;79.90
14798;DHT22;7490;63.708;20.368;2022-08-19T12:59:10;24.40;80.30
14798;DHT22;7490;63.708;20.368;2022-08-19T13:01:36;24.40;80.70
14798;DHT22;7490;63.708;20.368;2022-08-19T13:04:02;24.40;81.00
14798;DHT22;7490;63.708;20.368;2022-08-19T13:06:28;24.40;81.40
14798;DHT22;7490;63.708;20.368;2022-08-19T13:08:55;24.40;81.60
14798;DHT22;7490;63.708;20.368;2022-08-19T13:11:21;24.40;81.60
14798;DHT22;7490;63.708;20.368;2022-08-19T13:13:51;24.40;81.90
14798;DHT22;7490;63.708;20.368;2022-08-19T13:16:18;24.40;82.00
14798;DHT22;7490;63.708;20.368;2022-08-19T13:18:46;24.40;82.10
14798;DHT22;7490;63.708;20.368;2022-08-19T13:21:13;24.30;82.60
14798;DHT22;7490;63.708;20.368;2022-08-19T13:23:39;24.40;83.00
14798;DHT22;7490;63.708;20.368;2022-08-19T13:26:07;24.50;83.30
14798;DHT22;7490;63.708;20.368;2022-08-19T13:28:34;24.50;83.50
14798;DHT22;7490;63.708;20.368;2022-08-19T13:31:20;24.60;83.80
14798;DHT22;7490;63.708;20.368;2022-08-19T13:34:05;24.80;83.60
14798;DHT22;7490;63.708;20.368;2022-08-19T13:36:34;24.80;83.30
14798;DHT22;7490;63.708;20.368;2022-08-19T13:39:01;24.80;83.30
14798;DHT22;7490;63.708;20.368;2022-08-19T13:41:27;24.90;83.30
14798;DHT22;7490;63.708;20.368;2022-08-19T13:43:53;24.90;83.10
14798;DHT22;7490;63.708;20.368;2022-08-19T13:46:19;24.80;83.10
14798;DHT22;7490;63.708;20.368;2022-08-19T13:48:46;24.70;83.20
14798;DHT22;7490;63.708;20.368;2022-08-19T13:51:12;24.60;84.10
14798;DHT22;7490;63.708;20.368;2022-08-19T13:53:39;24.60;84.00
14798;DHT22;7490;63.708;20.368;2022-08-19T13:56:06;24.60;85.20
14798;DHT22;7490;63.708;20.368;2022-08-19T13:58:32;24.60;84.30
14798;DHT22;7490;63.708;20.368;2022-08-19T14:00:58;24.70;84.40
14798;DHT22;7490;63.708;20.368;2022-08-19T14:03:25;24.60;84.50
14798;DHT22;7490;63.708;20.368;2022-08-19T14:05:51;24.60;84.60
14798;DHT22;7490;63.708;20.368;2022-08-19T14:08:17;24.70;84.80
14798;DHT22;7490;63.708;20.368;2022-08-19T14:10:44;24.70;84.80
14798;DHT22;7490;63.708;20.368;2022-08-19T14:13:12;24.70;84.70
14798;DHT22;7490;63.708;20.368;2022-08-19T14:15:38;24.80;84.50
14798;DHT22;7490;63.708;20.368;2022-08-19T14:18:03;24.90;84.10
14798;DHT22;7490;63.708;20.368;2022-08-19T14:20:29;24.90;84.00
14798;DHT22;7490;63.708;20.368;2022-08-19T14:22:55;24.90;84.00
14798;DHT22;7490;63.708;20.368;2022-08-19T14:25:26;24.80;83.80
14798;DHT22;7490;63.708;20.368;2022-08-19T14:27:53;24.70;83.90
14798;DHT22;7490;63.708;20.368;2022-08-19T14:30:23;24.60;84.30
14798;DHT22;7490;63.708;20.368;2022-08-19T14:32:52;24.50;84.70
14798;DHT22;7490;63.708;20.368;2022-08-19T14:35:18;24.50;84.90
14798;DHT22;7490;63.708;20.368;2022-08-19T14:37:44;24.50;85.30
14798;DHT22;7490;63.708;20.368;2022-08-19T14:40:11;24.40;85.50
14798;DHT22;7490;63.708;20.368;2022-08-19T14:42:37;24.50;85.50
14798;DHT22;7490;63.708;20.368;2022-08-19T14:45:03;24.50;85.60
14798;DHT22;7490;63.708;20.368;2022-08-19T14:47:30;24.40;85.50
14798;DHT22;7490;63.708;20.368;2022-08-19T14:49:56;24.50;85.90
14798;DHT22;7490;63.708;20.368;2022-08-19T14:52:22;24.50;86.10
14798;DHT22;7490;63.708;20.368;2022-08-19T14:54:48;24.60;86.20
14798;DHT22;7490;63.708;20.368;2022-08-19T14:57:14;24.60;85.90
14798;DHT22;7490;63.708;20.368;2022-08-19T14:59:41;24.60;85.90
14798;DHT22;7490;63.708;20.368;2022-08-19T15:02:07;24.70;86.00
14798;DHT22;7490;63.708;20.368;2022-08-19T15:04:33;24.80;86.10
14798;DHT22;7490;63.708;20.368;2022-08-19T15:06:58;24.80;85.90
14798;DHT22;7490;63.708;20.368;2022-08-19T15:09:24;24.90;85.80
14798;DHT22;7490;63.708;20.368;2022-08-19T15:11:50;24.90;85.80
14798;DHT22;7490;63.708;20.368;2022-08-19T15:14:16;24.90;85.90
14798;DHT22;7490;63.708;20.368;2022-08-19T15:16:42;24.90;85.80
14798;DHT22;7490;63.708;20.368;2022-08-19T15:19:08;24.90;85.70
14798;DHT22;7490;63.708;20.368;2022-08-19T15:21:34;24.90;85.80
14798;DHT22;7490;63.708;20.368;2022-08-19T15:24:01;24.80;85.60
14798;DHT22;7490;63.708;20.368;2022-08-19T15:26:27;24.80;85.70
14798;DHT22;7490;63.708;20.368;2022-08-19T15:29:00;24.70;85.60
14798;DHT22;7490;63.708;20.368;2022-08-19T15:31:26;24.60;85.90
14798;DHT22;7490;63.708;20.368;2022-08-19T15:33:53;24.50;85.80
14798;DHT22;7490;63.708;20.368;2022-08-19T15:36:21;24.50;85.80
14798;DHT22;7490;63.708;20.368;2022-08-19T15:38:48;24.40;86.00
14798;DHT22;7490;63.708;20.368;2022-08-19T15:41:24;24.30;86.30
14798;DHT22;7490;63.708;20.368;2022-08-19T15:44:06;24.30;86.70